createdAt,value
2017-10-15T00:01:08.572Z,22.48
2017-10-15T00:02:17.601Z,22.45
2017-10-15T00:03:26.633Z,22.45
2017-10-15T00:04:35.657Z,22.44
2017-10-15T00:05:44.683Z,22.41
2017-10-15T00:06:54.051Z,22.39
2017-10-15T00:08:03.412Z,22.38
2017-10-15T00:09:12.448Z,22.41
2017-10-15T00:10:22.138Z,22.45
2017-10-15T00:11:31.166Z,22.48
2017-10-15T00:12:40.197Z,22.44
2017-10-15T00:13:49.564Z,22.38
2017-10-15T00:14:58.928Z,22.38
2017-10-15T00:16:08.292Z,22.41
2017-10-15T00:17:17.330Z,22.48
2017-10-15T00:18:27.355Z,22.51
2017-10-15T00:19:36.714Z,22.47
2017-10-15T00:20:45.746Z,22.43
2017-10-15T00:21:55.462Z,22.45
2017-10-15T00:23:04.841Z,22.47
2017-10-15T00:24:13.522Z,22.5
2017-10-15T00:25:22.549Z,22.47
2017-10-15T00:26:31.247Z,22.44
2017-10-15T00:27:40.626Z,22.35
2017-10-15T00:28:49.986Z,22.41
2017-10-15T00:30:00.005Z,22.36
2017-10-15T00:31:09.038Z,22.39
2017-10-15T00:32:17.738Z,22.38
2017-10-15T00:33:27.094Z,22.36
2017-10-15T00:34:36.119Z,22.38
2017-10-15T00:35:45.839Z,22.36
2017-10-15T00:36:55.199Z,22.36
2017-10-15T00:38:04.231Z,22.33
2017-10-15T00:39:13.604Z,22.35
2017-10-15T00:40:22.303Z,22.35
2017-10-15T00:41:31.334Z,22.35
2017-10-15T00:42:40.364Z,22.36
2017-10-15T00:43:49.064Z,22.39
2017-10-15T00:44:58.096Z,22.45
2017-10-15T00:46:07.487Z,22.39
2017-10-15T00:47:16.524Z,22.38
2017-10-15T00:48:25.553Z,22.36
2017-10-15T00:49:34.925Z,22.47
2017-10-15T00:50:43.955Z,22.41
2017-10-15T00:51:52.997Z,22.35
2017-10-15T00:53:01.691Z,22.38
2017-10-15T00:54:11.055Z,22.39
2017-10-15T00:55:20.083Z,22.48
2017-10-15T00:56:29.479Z,22.48
2017-10-15T00:57:38.843Z,22.45
2017-10-15T00:58:47.870Z,22.39
2017-10-15T00:59:57.230Z,22.33
2017-10-15T01:01:05.926Z,22.41
2017-10-15T01:02:14.952Z,22.44
2017-10-15T01:03:24.027Z,22.35
2017-10-15T01:04:33.382Z,22.35
2017-10-15T01:05:42.748Z,22.39
2017-10-15T01:06:51.445Z,22.36
2017-10-15T01:08:00.144Z,22.39
2017-10-15T01:09:09.844Z,22.41
2017-10-15T01:10:19.545Z,22.39
2017-10-15T01:11:29.231Z,22.35
2017-10-15T01:12:38.266Z,22.38
2017-10-15T01:13:47.300Z,22.35
2017-10-15T01:14:56.000Z,22.38
2017-10-15T01:16:04.701Z,22.35
2017-10-15T01:17:13.398Z,22.36
2017-10-15T01:18:22.765Z,22.36
2017-10-15T01:19:32.129Z,22.25
2017-10-15T01:20:41.166Z,22.3
2017-10-15T01:21:50.544Z,22.29
2017-10-15T01:23:00.245Z,22.36
2017-10-15T01:24:08.942Z,22.38
2017-10-15T01:25:17.977Z,22.35
2017-10-15T01:26:27.006Z,22.3
2017-10-15T01:27:36.040Z,22.3
2017-10-15T01:28:45.070Z,22.28
2017-10-15T01:29:54.098Z,22.26
2017-10-15T01:31:03.467Z,22.28
2017-10-15T01:32:13.165Z,22.25
2017-10-15T01:33:22.189Z,22.26
2017-10-15T01:34:31.561Z,22.26
2017-10-15T01:35:40.594Z,22.28
2017-10-15T01:36:49.958Z,22.25
2017-10-15T01:37:59.324Z,22.25
2017-10-15T01:39:09.015Z,22.14
2017-10-15T01:40:17.716Z,22.17
2017-10-15T01:41:27.406Z,22.17
2017-10-15T01:42:36.436Z,22.13
2017-10-15T01:43:46.133Z,22.17
2017-10-15T01:44:54.832Z,22.15
2017-10-15T01:46:03.866Z,22.14
2017-10-15T01:47:12.902Z,22.23
2017-10-15T01:48:22.263Z,22.14
2017-10-15T01:49:31.291Z,22.17
2017-10-15T01:50:40.318Z,22.23
2017-10-15T01:51:49.351Z,22.18
2017-10-15T01:52:58.387Z,22.13
2017-10-15T01:54:07.411Z,22.14
2017-10-15T01:55:16.455Z,22.1
2017-10-15T01:56:25.478Z,22.14
2017-10-15T01:57:34.513Z,22.14
2017-10-15T01:58:43.206Z,22.07
2017-10-15T01:59:52.902Z,22.07
2017-10-15T02:01:01.599Z,22.06
2017-10-15T02:02:11.294Z,22.11
2017-10-15T02:03:20.328Z,22.11
2017-10-15T02:04:30.020Z,22.17
2017-10-15T02:05:40.404Z,22.06
2017-10-15T02:06:49.767Z,22.17
2017-10-15T02:07:59.144Z,22.18
2017-10-15T02:09:08.171Z,22.14
2017-10-15T02:10:17.530Z,22.1
2017-10-15T02:11:26.564Z,22.15
2017-10-15T02:12:35.262Z,22.08
2017-10-15T02:13:44.288Z,22.2
2017-10-15T02:14:53.323Z,22.15
2017-10-15T02:16:02.358Z,22.1
2017-10-15T02:17:11.054Z,22.08
2017-10-15T02:18:20.086Z,22.1
2017-10-15T02:19:29.120Z,22.08
2017-10-15T02:20:38.149Z,22.1
2017-10-15T02:21:47.841Z,21.98
2017-10-15T02:22:56.869Z,22.1
2017-10-15T02:24:05.901Z,21.98
2017-10-15T02:25:15.263Z,22
2017-10-15T02:26:24.292Z,21.96
2017-10-15T02:27:33.324Z,22.06
2017-10-15T02:28:43.015Z,21.99
2017-10-15T02:29:51.708Z,21.98
2017-10-15T02:31:00.404Z,21.96
2017-10-15T02:32:09.765Z,21.98
2017-10-15T02:33:18.817Z,21.93
2017-10-15T02:34:27.516Z,21.95
2017-10-15T02:35:36.890Z,21.95
2017-10-15T02:36:46.589Z,21.92
2017-10-15T02:37:55.626Z,21.95
2017-10-15T02:39:04.658Z,21.93
2017-10-15T02:40:14.024Z,21.92
2017-10-15T02:41:23.053Z,21.93
2017-10-15T02:42:32.749Z,21.96
2017-10-15T02:43:42.457Z,21.93
2017-10-15T02:44:51.815Z,21.98
2017-10-15T02:46:00.844Z,21.99
2017-10-15T02:47:09.543Z,21.95
2017-10-15T02:48:18.571Z,21.98
2017-10-15T02:49:27.264Z,21.98
2017-10-15T02:50:36.622Z,22.04
2017-10-15T02:51:45.983Z,22
2017-10-15T02:52:54.683Z,21.99
2017-10-15T02:54:04.380Z,21.92
2017-10-15T02:55:14.086Z,21.88
2017-10-15T02:56:22.783Z,21.92
2017-10-15T02:57:31.485Z,21.83
2017-10-15T02:58:40.522Z,21.91
2017-10-15T02:59:49.559Z,21.92
2017-10-15T03:00:58.919Z,21.85
2017-10-15T03:02:08.291Z,21.88
2017-10-15T03:03:17.655Z,21.89
2017-10-15T03:04:27.027Z,21.89
2017-10-15T03:05:36.058Z,21.89
2017-10-15T03:06:45.417Z,21.83
2017-10-15T03:07:54.115Z,21.79
2017-10-15T03:09:03.140Z,21.83
2017-10-15T03:10:12.498Z,21.79
2017-10-15T03:11:21.524Z,21.77
2017-10-15T03:12:30.891Z,21.75
2017-10-15T03:13:40.257Z,21.75
2017-10-15T03:14:49.621Z,21.72
2017-10-15T03:15:58.316Z,21.72
2017-10-15T03:17:07.015Z,21.77
2017-10-15T03:18:16.374Z,21.82
2017-10-15T03:19:25.740Z,21.69
2017-10-15T03:20:34.770Z,21.72
2017-10-15T03:21:44.807Z,21.72
2017-10-15T03:22:54.169Z,21.77
2017-10-15T03:24:03.863Z,21.7
2017-10-15T03:25:12.894Z,21.79
2017-10-15T03:26:22.261Z,21.73
2017-10-15T03:27:31.294Z,21.72
2017-10-15T03:28:40.654Z,21.8
2017-10-15T03:29:49.681Z,21.76
2017-10-15T03:30:59.380Z,21.83
2017-10-15T03:32:08.415Z,21.76
2017-10-15T03:33:18.117Z,21.79
2017-10-15T03:34:27.149Z,21.85
2017-10-15T03:35:36.513Z,21.82
2017-10-15T03:36:45.210Z,21.82
2017-10-15T03:37:54.238Z,21.92
2017-10-15T03:39:03.278Z,21.92
2017-10-15T03:40:11.975Z,21.88
2017-10-15T03:41:21.008Z,21.89
2017-10-15T03:42:30.046Z,21.88
2017-10-15T03:43:38.744Z,21.92
2017-10-15T03:44:48.119Z,21.92
2017-10-15T03:45:57.149Z,21.95
2017-10-15T03:47:06.179Z,21.91
2017-10-15T03:48:15.206Z,21.93
2017-10-15T03:49:23.904Z,21.92
2017-10-15T03:50:33.268Z,21.85
2017-10-15T03:51:42.301Z,21.91
2017-10-15T03:52:51.000Z,21.96
2017-10-15T03:54:00.386Z,21.95
2017-10-15T03:55:09.421Z,21.93
2017-10-15T03:56:18.784Z,21.92
2017-10-15T03:57:27.486Z,21.93
2017-10-15T03:58:36.522Z,21.92
2017-10-15T03:59:46.216Z,21.93
2017-10-15T04:00:55.580Z,21.92
2017-10-15T04:02:04.945Z,21.95
2017-10-15T04:03:14.312Z,21.95
2017-10-15T04:04:23.672Z,21.89
2017-10-15T04:05:33.026Z,21.89
2017-10-15T04:06:42.391Z,21.93
2017-10-15T04:07:51.086Z,21.99
2017-10-15T04:09:00.123Z,21.95
2017-10-15T04:10:09.153Z,21.95
2017-10-15T04:11:18.183Z,21.93
2017-10-15T04:12:27.212Z,21.89
2017-10-15T04:13:36.572Z,21.95
2017-10-15T04:14:45.961Z,21.93
2017-10-15T04:15:54.974Z,21.89
2017-10-15T04:17:04.016Z,21.83
2017-10-15T04:18:13.049Z,21.89
2017-10-15T04:19:22.080Z,21.91
2017-10-15T04:20:31.777Z,21.91
2017-10-15T04:21:40.807Z,21.91
2017-10-15T04:22:49.505Z,21.92
2017-10-15T04:23:58.199Z,21.89
2017-10-15T04:25:06.895Z,21.91
2017-10-15T04:26:16.275Z,21.91
2017-10-15T04:27:25.641Z,21.95
2017-10-15T04:28:34.338Z,21.96
2017-10-15T04:29:43.038Z,21.95
2017-10-15T04:30:52.405Z,21.85
2017-10-15T04:32:01.435Z,21.98
2017-10-15T04:33:10.131Z,21.99
2017-10-15T04:34:19.159Z,21.95
2017-10-15T04:35:28.856Z,21.91
2017-10-15T04:36:38.221Z,21.93
2017-10-15T04:37:47.581Z,21.93
2017-10-15T04:38:56.607Z,21.93
2017-10-15T04:40:06.326Z,21.93
2017-10-15T04:41:15.354Z,21.88
2017-10-15T04:42:24.385Z,21.91
2017-10-15T04:43:33.756Z,21.93
2017-10-15T04:44:42.455Z,21.95
2017-10-15T04:45:51.482Z,21.88
2017-10-15T04:47:00.516Z,21.91
2017-10-15T04:48:09.875Z,21.95
2017-10-15T04:49:18.573Z,21.95
2017-10-15T04:50:27.932Z,21.92
2017-10-15T04:51:36.967Z,21.93
2017-10-15T04:52:46.331Z,21.95
2017-10-15T04:53:56.029Z,21.96
2017-10-15T04:55:05.058Z,21.96
2017-10-15T04:56:14.420Z,21.93
2017-10-15T04:57:23.117Z,21.95
2017-10-15T04:58:32.477Z,21.95
2017-10-15T04:59:41.179Z,21.95
2017-10-15T05:00:50.876Z,21.96
2017-10-15T05:01:59.906Z,21.93
2017-10-15T05:03:09.266Z,21.92
2017-10-15T05:04:18.300Z,21.93
2017-10-15T05:05:27.658Z,21.93
2017-10-15T05:06:36.692Z,21.92
2017-10-15T05:07:45.720Z,21.92
2017-10-15T05:08:55.085Z,21.96
2017-10-15T05:10:04.117Z,21.91
2017-10-15T05:11:13.820Z,21.95
2017-10-15T05:12:22.523Z,21.92
2017-10-15T05:13:31.879Z,22
2017-10-15T05:14:40.909Z,21.96
2017-10-15T05:15:49.984Z,21.99
2017-10-15T05:16:58.682Z,21.93
2017-10-15T05:18:07.712Z,22
2017-10-15T05:19:16.411Z,22
2017-10-15T05:20:25.444Z,21.99
2017-10-15T05:21:34.475Z,21.96
2017-10-15T05:22:43.841Z,22
2017-10-15T05:23:52.869Z,21.98
2017-10-15T05:25:01.900Z,22.1
2017-10-15T05:26:10.929Z,22.04
2017-10-15T05:27:19.629Z,21.96
2017-10-15T05:28:28.991Z,21.98
2017-10-15T05:29:38.026Z,22.07
2017-10-15T05:30:47.393Z,22
2017-10-15T05:31:56.763Z,21.96
2017-10-15T05:33:05.791Z,21.96
2017-10-15T05:34:15.485Z,21.98
2017-10-15T05:35:25.186Z,21.99
2017-10-15T05:36:34.211Z,21.96
2017-10-15T05:37:43.243Z,21.96
2017-10-15T05:38:51.942Z,22.04
2017-10-15T05:40:01.300Z,21.95
2017-10-15T05:41:11.325Z,21.93
2017-10-15T05:42:20.690Z,21.93
2017-10-15T05:43:30.047Z,22
2017-10-15T05:44:39.087Z,22
2017-10-15T05:45:48.472Z,21.99
2017-10-15T05:46:57.840Z,21.98
2017-10-15T05:48:06.538Z,22.04
2017-10-15T05:49:15.236Z,22.04
2017-10-15T05:50:24.267Z,21.96
2017-10-15T05:51:33.298Z,21.99
2017-10-15T05:52:41.997Z,21.93
2017-10-15T05:53:51.037Z,21.96
2017-10-15T05:55:01.056Z,21.98
2017-10-15T05:56:10.759Z,21.98
2017-10-15T05:57:19.450Z,21.96
2017-10-15T05:58:28.814Z,22.02
2017-10-15T05:59:37.854Z,21.98
2017-10-15T06:00:46.551Z,22.02
2017-10-15T06:01:55.579Z,22.02
2017-10-15T06:03:04.947Z,22.07
2017-10-15T06:04:14.318Z,22.04
2017-10-15T06:05:23.351Z,21.96
2017-10-15T06:06:33.047Z,21.98
2017-10-15T06:07:42.408Z,22.07
2017-10-15T06:08:51.454Z,21.99
2017-10-15T06:10:00.488Z,21.95
2017-10-15T06:11:09.853Z,21.96
2017-10-15T06:12:18.549Z,21.99
2017-10-15T06:13:27.908Z,21.98
2017-10-15T06:14:37.277Z,21.99
2017-10-15T06:15:46.981Z,21.95
2017-10-15T06:16:56.350Z,21.96
2017-10-15T06:18:05.051Z,21.98
2017-10-15T06:19:14.744Z,22
2017-10-15T06:20:23.773Z,21.99
2017-10-15T06:21:32.799Z,22
2017-10-15T06:22:41.831Z,21.96
2017-10-15T06:23:50.530Z,22
2017-10-15T06:25:00.562Z,21.98
2017-10-15T06:26:09.966Z,21.99
2017-10-15T06:27:19.673Z,22.06
2017-10-15T06:28:29.366Z,21.93
2017-10-15T06:29:39.080Z,21.99
2017-10-15T06:30:48.439Z,21.98
2017-10-15T06:31:57.796Z,21.96
2017-10-15T06:33:06.827Z,22.02
2017-10-15T06:34:16.194Z,21.92
2017-10-15T06:35:25.879Z,22.02
2017-10-15T06:36:34.914Z,21.98
2017-10-15T06:37:43.611Z,21.99
2017-10-15T06:38:52.978Z,22
2017-10-15T06:40:01.674Z,22
2017-10-15T06:41:11.375Z,21.98
2017-10-15T06:42:20.739Z,21.99
2017-10-15T06:43:30.211Z,21.95
2017-10-15T06:44:39.571Z,21.95
2017-10-15T06:45:49.266Z,21.93
2017-10-15T06:46:58.628Z,21.96
2017-10-15T06:48:07.996Z,21.95
2017-10-15T06:49:17.030Z,21.99
2017-10-15T06:50:25.728Z,21.95
2017-10-15T06:51:34.766Z,21.92
2017-10-15T06:52:43.797Z,21.93
2017-10-15T06:53:53.166Z,21.95
2017-10-15T06:55:02.202Z,21.89
2017-10-15T06:56:10.906Z,21.91
2017-10-15T06:57:20.264Z,21.91
2017-10-15T06:58:29.297Z,21.91
2017-10-15T06:59:38.324Z,22
2017-10-15T07:00:47.359Z,21.99
2017-10-15T07:01:56.389Z,22.02
2017-10-15T07:03:05.090Z,22.07
2017-10-15T07:04:13.790Z,22.06
2017-10-15T07:05:22.816Z,22.06
2017-10-15T07:06:31.845Z,22.06
2017-10-15T07:07:40.877Z,22.06
2017-10-15T07:08:49.917Z,21.98
2017-10-15T07:09:58.938Z,22.1
2017-10-15T07:11:07.637Z,22.02
2017-10-15T07:12:16.663Z,22.07
2017-10-15T07:13:25.695Z,22.1
2017-10-15T07:14:34.726Z,22.04
2017-10-15T07:15:43.757Z,22.17
2017-10-15T07:16:53.797Z,22.29
2017-10-15T07:18:02.827Z,22.32
2017-10-15T07:19:12.521Z,22.41
2017-10-15T07:20:21.880Z,22.33
2017-10-15T07:21:30.911Z,22.38
2017-10-15T07:22:39.941Z,22.32
2017-10-15T07:23:48.973Z,22.33
2017-10-15T07:24:58.675Z,22.45
2017-10-15T07:26:08.373Z,22.47
2017-10-15T07:27:17.073Z,22.54
2017-10-15T07:28:26.104Z,22.63
2017-10-15T07:29:34.806Z,22.72
2017-10-15T07:30:43.833Z,23.05
2017-10-15T07:31:52.531Z,23.41
2017-10-15T07:33:01.554Z,23.77
2017-10-15T07:34:11.592Z,24.08
2017-10-15T07:35:20.625Z,24.36
2017-10-15T07:36:30.007Z,24.53
2017-10-15T07:37:39.033Z,24.68
2017-10-15T07:38:47.730Z,24.66
2017-10-15T07:39:56.428Z,24.65
2017-10-15T07:41:05.462Z,24.61
2017-10-15T07:42:14.495Z,24.5
2017-10-15T07:43:23.536Z,24.42
2017-10-15T07:44:32.581Z,24.36
2017-10-15T07:45:41.947Z,24.3
2017-10-15T07:46:50.986Z,24.36
2017-10-15T07:48:00.355Z,24.28
2017-10-15T07:49:09.054Z,24.28
2017-10-15T07:50:18.423Z,24.17
2017-10-15T07:51:27.454Z,24.16
2017-10-15T07:52:36.488Z,24.06
2017-10-15T07:53:45.519Z,24.13
2017-10-15T07:54:54.555Z,24.02
2017-10-15T07:56:03.587Z,24.01
2017-10-15T07:57:13.299Z,24.02
2017-10-15T07:58:22.000Z,24.05
2017-10-15T07:59:31.697Z,23.93
2017-10-15T08:00:40.724Z,24.03
2017-10-15T08:01:50.091Z,23.92
2017-10-15T08:02:59.460Z,23.98
2017-10-15T08:04:08.826Z,23.95
2017-10-15T08:05:18.195Z,23.95
2017-10-15T08:06:27.565Z,23.95
2017-10-15T08:07:36.599Z,24.01
2017-10-15T08:08:45.298Z,23.98
2017-10-15T08:09:54.330Z,24.17
2017-10-15T08:11:03.691Z,24.06
2017-10-15T08:12:13.059Z,24.11
2017-10-15T08:13:22.754Z,24.08
2017-10-15T08:14:31.790Z,24.18
2017-10-15T08:15:40.824Z,24.16
2017-10-15T08:16:49.852Z,24.14
2017-10-15T08:17:58.888Z,24.2
2017-10-15T08:19:07.919Z,24.21
2017-10-15T08:20:16.951Z,24.21
2017-10-15T08:21:26.328Z,24.24
2017-10-15T08:22:35.694Z,24.17
2017-10-15T08:23:45.073Z,24.2
2017-10-15T08:24:54.102Z,24.23
2017-10-15T08:26:03.475Z,24.28
2017-10-15T08:27:12.505Z,24.33
2017-10-15T08:28:22.202Z,24.32
2017-10-15T08:29:31.565Z,24.24
2017-10-15T08:30:40.602Z,24.33
2017-10-15T08:31:49.631Z,24.33
2017-10-15T08:32:58.668Z,24.36
2017-10-15T08:34:08.028Z,24.38
2017-10-15T08:35:16.732Z,24.36
2017-10-15T08:36:26.092Z,24.33
2017-10-15T08:37:34.790Z,24.4
2017-10-15T08:38:43.488Z,24.42
2017-10-15T08:39:52.524Z,24.48
2017-10-15T08:41:01.557Z,24.48
2017-10-15T08:42:11.250Z,24.4
2017-10-15T08:43:20.958Z,24.48
2017-10-15T08:44:29.989Z,24.38
2017-10-15T08:45:40.024Z,24.5
2017-10-15T08:46:49.386Z,24.54
2017-10-15T08:47:58.422Z,24.61
2017-10-15T08:49:07.450Z,24.66
2017-10-15T08:50:16.484Z,24.69
2017-10-15T08:51:25.852Z,24.68
2017-10-15T08:52:34.880Z,24.65
2017-10-15T08:53:44.243Z,24.74
2017-10-15T08:54:53.937Z,24.69
2017-10-15T08:56:03.301Z,24.74
2017-10-15T08:57:12.663Z,24.74
2017-10-15T08:58:22.691Z,24.78
2017-10-15T08:59:31.390Z,24.8
2017-10-15T09:00:41.099Z,24.86
2017-10-15T09:01:51.129Z,24.91
2017-10-15T09:03:00.159Z,25.06
2017-10-15T09:04:09.200Z,24.99
2017-10-15T09:05:18.569Z,25.13
2017-10-15T09:06:28.264Z,25.25
2017-10-15T09:07:36.958Z,25.41
2017-10-15T09:08:45.659Z,25.41
2017-10-15T09:09:55.028Z,25.51
2017-10-15T09:11:04.421Z,25.53
2017-10-15T09:12:13.763Z,25.69
2017-10-15T09:13:23.134Z,25.77
2017-10-15T09:14:32.198Z,25.85
2017-10-15T09:15:41.225Z,25.96
2017-10-15T09:16:50.261Z,26.13
2017-10-15T09:17:59.626Z,26.25
2017-10-15T09:19:08.991Z,26.38
2017-10-15T09:20:18.689Z,26.55
2017-10-15T09:21:28.052Z,26.62
2017-10-15T09:22:37.084Z,26.63
2017-10-15T09:23:46.444Z,26.74
2017-10-15T09:24:55.146Z,26.89
2017-10-15T09:26:04.528Z,26.97
2017-10-15T09:27:13.211Z,27.12
2017-10-15T09:28:22.911Z,27.15
2017-10-15T09:29:31.949Z,27.26
2017-10-15T09:30:41.314Z,27.48
2017-10-15T09:31:50.692Z,27.51
2017-10-15T09:32:59.724Z,27.73
2017-10-15T09:34:08.760Z,27.83
2017-10-15T09:35:17.807Z,27.95
2017-10-15T09:36:27.175Z,27.95
2017-10-15T09:37:35.886Z,28.19
2017-10-15T09:38:46.256Z,28.25
2017-10-15T09:39:55.958Z,28.48
2017-10-15T09:41:04.989Z,28.62
2017-10-15T09:42:14.353Z,28.59
2017-10-15T09:43:23.392Z,28.75
2017-10-15T09:44:32.770Z,28.79
2017-10-15T09:45:41.475Z,28.89
2017-10-15T09:46:50.509Z,29.01
2017-10-15T09:47:59.549Z,29.14
2017-10-15T09:49:08.586Z,29.24
2017-10-15T09:50:17.630Z,29.41
2017-10-15T09:51:26.997Z,29.41
2017-10-15T09:52:35.704Z,29.53
2017-10-15T09:53:44.752Z,29.66
2017-10-15T09:54:54.452Z,29.75
2017-10-15T09:56:03.151Z,29.76
2017-10-15T09:57:12.520Z,29.88
2017-10-15T09:58:21.567Z,29.88
2017-10-15T09:59:31.277Z,29.97
2017-10-15T10:00:40.645Z,30.05
2017-10-15T10:01:49.676Z,30.19
2017-10-15T10:02:59.050Z,30.24
2017-10-15T10:04:09.082Z,30.31
2017-10-15T10:05:18.116Z,30.37
2017-10-15T10:06:26.820Z,30.43
2017-10-15T10:07:35.531Z,30.54
2017-10-15T10:08:44.589Z,30.55
2017-10-15T10:09:53.618Z,30.65
2017-10-15T10:11:02.989Z,30.69
2017-10-15T10:12:12.024Z,30.72
2017-10-15T10:13:21.065Z,30.8
2017-10-15T10:14:30.825Z,30.8
2017-10-15T10:15:39.869Z,30.77
2017-10-15T10:16:49.574Z,30.78
2017-10-15T10:17:58.620Z,30.83
2017-10-15T10:19:08.337Z,30.78
2017-10-15T10:20:17.049Z,30.83
2017-10-15T10:21:25.766Z,30.81
2017-10-15T10:22:34.808Z,30.85
2017-10-15T10:23:43.522Z,30.81
2017-10-15T10:24:52.229Z,30.92
2017-10-15T10:26:01.271Z,30.94
2017-10-15T10:27:10.314Z,30.99
2017-10-15T10:28:20.028Z,31.06
2017-10-15T10:29:29.076Z,31.09
2017-10-15T10:30:38.460Z,31.05
2017-10-15T10:31:48.164Z,31.14
2017-10-15T10:32:56.882Z,31.15
2017-10-15T10:34:05.922Z,31.05
2017-10-15T10:35:14.967Z,31.17
2017-10-15T10:36:24.010Z,31.03
2017-10-15T10:37:32.713Z,31.06
2017-10-15T10:38:41.748Z,31.03
2017-10-15T10:39:50.788Z,30.94
2017-10-15T10:41:00.492Z,30.99
2017-10-15T10:42:09.204Z,30.97
2017-10-15T10:43:18.243Z,31.09
2017-10-15T10:44:27.951Z,31.14
2017-10-15T10:45:37.321Z,31.2
2017-10-15T10:46:46.019Z,31.2
2017-10-15T10:47:55.387Z,31.18
2017-10-15T10:49:05.085Z,31.18
2017-10-15T10:50:14.788Z,31.27
2017-10-15T10:51:23.826Z,31.39
2017-10-15T10:52:32.528Z,31.37
2017-10-15T10:53:41.561Z,31.46
2017-10-15T10:54:50.927Z,31.4
2017-10-15T10:55:59.962Z,31.39
2017-10-15T10:57:09.662Z,31.42
2017-10-15T10:58:19.041Z,31.37
2017-10-15T10:59:28.078Z,31.39
2017-10-15T11:00:36.779Z,31.43
2017-10-15T11:01:46.146Z,31.55
2017-10-15T11:02:54.850Z,31.58
2017-10-15T11:04:04.218Z,31.61
2017-10-15T11:05:13.586Z,31.62
2017-10-15T11:06:22.623Z,31.66
2017-10-15T11:07:31.657Z,31.77
2017-10-15T11:08:41.023Z,31.69
2017-10-15T11:09:50.062Z,31.65
2017-10-15T11:10:59.428Z,31.71
2017-10-15T11:12:08.786Z,31.78
2017-10-15T11:13:18.156Z,31.84
2017-10-15T11:14:27.524Z,31.89
2017-10-15T11:15:36.559Z,31.96
2017-10-15T11:16:46.268Z,31.92
2017-10-15T11:17:55.304Z,31.93
2017-10-15T11:19:04.008Z,31.92
2017-10-15T11:20:13.377Z,32.08
2017-10-15T11:21:22.410Z,32.09
2017-10-15T11:22:31.775Z,32.12
2017-10-15T11:23:41.472Z,32.16
2017-10-15T11:24:50.527Z,32.21
2017-10-15T11:25:59.560Z,32.27
2017-10-15T11:27:08.597Z,32.12
2017-10-15T11:28:18.298Z,32.15
2017-10-15T11:29:27.344Z,32.16
2017-10-15T11:30:36.380Z,32.14
2017-10-15T11:31:46.080Z,32.15
2017-10-15T11:32:55.119Z,32.14
2017-10-15T11:34:04.509Z,32.16
2017-10-15T11:35:13.527Z,32.12
2017-10-15T11:36:22.559Z,32.15
2017-10-15T11:37:31.597Z,32.23
2017-10-15T11:38:40.635Z,32.16
2017-10-15T11:39:49.342Z,32.15
2017-10-15T11:40:59.047Z,32.18
2017-10-15T11:42:08.082Z,32.03
2017-10-15T11:43:17.448Z,31.92
2017-10-15T11:44:26.815Z,31.74
2017-10-15T11:45:36.185Z,31.61
2017-10-15T11:46:45.220Z,31.37
2017-10-15T11:47:53.922Z,31.17
2017-10-15T11:49:03.294Z,31.02
2017-10-15T11:50:12.661Z,30.88
2017-10-15T11:51:22.025Z,30.78
2017-10-15T11:52:32.383Z,30.62
2017-10-15T11:53:41.754Z,30.37
2017-10-15T11:54:50.456Z,30.25
2017-10-15T11:55:59.178Z,30.02
2017-10-15T11:57:08.201Z,30.02
2017-10-15T11:58:16.906Z,29.93
2017-10-15T11:59:25.939Z,29.79
2017-10-15T12:00:35.306Z,29.63
2017-10-15T12:01:44.346Z,29.57
2017-10-15T12:02:53.387Z,29.47
2017-10-15T12:04:02.756Z,29.35
2017-10-15T12:05:12.790Z,29.34
2017-10-15T12:06:21.822Z,29.34
2017-10-15T12:07:30.855Z,29.19
2017-10-15T12:08:40.232Z,29.12
2017-10-15T12:09:49.939Z,29.14
2017-10-15T12:10:59.641Z,29.05
2017-10-15T12:12:08.689Z,28.94
2017-10-15T12:13:17.731Z,28.93
2017-10-15T12:14:26.766Z,28.82
2017-10-15T12:15:35.806Z,28.89
2017-10-15T12:16:45.510Z,28.89
2017-10-15T12:17:54.547Z,28.84
2017-10-15T12:19:03.592Z,28.69
2017-10-15T12:20:12.634Z,28.63
2017-10-15T12:21:21.337Z,28.63
2017-10-15T12:22:30.707Z,28.51
2017-10-15T12:23:39.408Z,28.41
2017-10-15T12:24:48.442Z,28.47
2017-10-15T12:25:57.487Z,28.33
2017-10-15T12:27:06.526Z,28.3
2017-10-15T12:28:15.231Z,28.27
2017-10-15T12:29:24.270Z,28.15
2017-10-15T12:30:33.622Z,28.19
2017-10-15T12:31:42.985Z,28.11
2017-10-15T12:32:52.345Z,28.08
2017-10-15T12:34:01.048Z,28
2017-10-15T12:35:10.084Z,27.98
2017-10-15T12:36:19.450Z,27.96
2017-10-15T12:37:28.812Z,27.92
2017-10-15T12:38:38.181Z,27.9
2017-10-15T12:39:47.219Z,27.89
2017-10-15T12:40:55.920Z,27.82
2017-10-15T12:42:05.625Z,27.78
2017-10-15T12:43:14.656Z,27.8
2017-10-15T12:44:23.686Z,27.77
2017-10-15T12:45:33.388Z,27.8
2017-10-15T12:46:43.089Z,27.7
2017-10-15T12:47:52.448Z,27.71
2017-10-15T12:49:01.482Z,27.63
2017-10-15T12:50:10.517Z,27.63
2017-10-15T12:51:19.886Z,27.55
2017-10-15T12:52:29.591Z,27.59
2017-10-15T12:53:38.625Z,27.51
2017-10-15T12:54:47.323Z,27.45
2017-10-15T12:55:56.357Z,27.4
2017-10-15T12:57:05.396Z,27.37
2017-10-15T12:58:14.427Z,27.39
2017-10-15T12:59:23.467Z,27.4
2017-10-15T13:00:32.841Z,27.35
2017-10-15T13:01:41.875Z,27.36
2017-10-15T13:02:51.239Z,27.37
2017-10-15T13:04:00.608Z,27.21
2017-10-15T13:05:09.983Z,27.27
2017-10-15T13:06:19.267Z,27.2
2017-10-15T13:07:27.964Z,27.17
2017-10-15T13:08:37.664Z,27.02
2017-10-15T13:09:46.698Z,27.14
2017-10-15T13:10:56.398Z,27.07
2017-10-15T13:12:05.442Z,27.02
2017-10-15T13:13:14.820Z,27.1
2017-10-15T13:14:23.852Z,27.05
2017-10-15T13:15:32.553Z,27.07
2017-10-15T13:16:41.606Z,26.99
2017-10-15T13:17:50.410Z,27.05
2017-10-15T13:18:59.446Z,26.99
2017-10-15T13:20:08.486Z,26.92
2017-10-15T13:21:17.193Z,26.9
2017-10-15T13:22:26.229Z,26.97
2017-10-15T13:23:35.924Z,26.89
2017-10-15T13:24:45.969Z,26.89
2017-10-15T13:25:55.001Z,26.85
2017-10-15T13:27:04.372Z,26.84
2017-10-15T13:28:13.405Z,26.83
2017-10-15T13:29:22.100Z,26.9
2017-10-15T13:30:31.134Z,26.81
2017-10-15T13:31:40.497Z,26.85
2017-10-15T13:32:49.858Z,26.75
2017-10-15T13:33:58.555Z,26.78
2017-10-15T13:35:07.586Z,26.75
2017-10-15T13:36:16.626Z,26.73
2017-10-15T13:37:25.325Z,26.74
2017-10-15T13:38:34.357Z,26.63
2017-10-15T13:39:43.058Z,26.63
2017-10-15T13:40:51.754Z,26.59
2017-10-15T13:42:01.119Z,26.53
2017-10-15T13:43:09.819Z,26.56
2017-10-15T13:44:19.192Z,26.53
2017-10-15T13:45:28.564Z,26.53
2017-10-15T13:46:37.269Z,26.59
2017-10-15T13:47:46.975Z,26.62
2017-10-15T13:48:56.007Z,26.56
2017-10-15T13:50:05.707Z,26.59
2017-10-15T13:51:14.752Z,26.56
2017-10-15T13:52:24.110Z,26.47
2017-10-15T13:53:33.166Z,26.53
2017-10-15T13:54:42.533Z,26.53
2017-10-15T13:55:51.563Z,26.47
2017-10-15T13:57:00.607Z,26.48
2017-10-15T13:58:09.975Z,26.45
2017-10-15T13:59:19.339Z,26.41
2017-10-15T14:00:28.374Z,26.45
2017-10-15T14:01:37.072Z,26.4
2017-10-15T14:02:46.145Z,26.36
2017-10-15T14:03:54.845Z,26.37
2017-10-15T14:05:04.550Z,26.28
2017-10-15T14:06:13.580Z,26.23
2017-10-15T14:07:23.276Z,26.18
2017-10-15T14:08:32.311Z,26.22
2017-10-15T14:09:41.674Z,26.21
2017-10-15T14:10:50.371Z,26.16
2017-10-15T14:11:59.403Z,26.13
2017-10-15T14:13:08.104Z,26.05
2017-10-15T14:14:17.142Z,26.15
2017-10-15T14:15:26.175Z,26.1
2017-10-15T14:16:35.208Z,26.09
2017-10-15T14:17:44.901Z,26.02
2017-10-15T14:18:53.602Z,26.05
2017-10-15T14:20:02.305Z,26.05
2017-10-15T14:21:11.673Z,26
2017-10-15T14:22:20.374Z,25.99
2017-10-15T14:23:29.408Z,25.99
2017-10-15T14:24:38.772Z,25.9
2017-10-15T14:25:48.504Z,25.95
2017-10-15T14:26:57.205Z,25.88
2017-10-15T14:28:06.241Z,25.8
2017-10-15T14:29:15.943Z,25.81
2017-10-15T14:30:24.975Z,25.84
2017-10-15T14:31:34.010Z,25.78
2017-10-15T14:32:43.038Z,25.9
2017-10-15T14:33:52.075Z,25.8
2017-10-15T14:35:01.449Z,25.84
2017-10-15T14:36:10.816Z,25.9
2017-10-15T14:37:19.519Z,25.83
2017-10-15T14:38:28.885Z,25.8
2017-10-15T14:39:37.915Z,25.78
2017-10-15T14:40:46.943Z,25.73
2017-10-15T14:41:55.646Z,25.73
2017-10-15T14:43:05.013Z,25.75
2017-10-15T14:44:14.044Z,25.77
2017-10-15T14:45:23.424Z,25.78
2017-10-15T14:46:32.798Z,25.73
2017-10-15T14:47:41.495Z,25.7
2017-10-15T14:48:50.530Z,25.65
2017-10-15T14:49:59.563Z,25.63
2017-10-15T14:51:09.271Z,25.62
2017-10-15T14:52:18.643Z,25.66
2017-10-15T14:53:27.670Z,25.66
2017-10-15T14:54:36.371Z,25.62